createdAt,value
2022-08-25T00:02:03.708Z,65.30
2022-08-25T00:04:31.879Z,65.20
2022-08-25T00:07:03.339Z,65.20
2022-08-25T00:09:32.724Z,65.10
2022-08-25T00:12:00.114Z,65.10
2022-08-25T00:14:34.212Z,65.10
2022-08-25T00:17:01.756Z,64.90
2022-08-25T00:19:32.799Z,64.80
2022-08-25T00:22:00.883Z,64.80
2022-08-25T00:24:28.223Z,64.70
2022-08-25T00:26:57.252Z,64.60
2022-08-25T00:29:26.202Z,64.60
2022-08-25T00:31:54.974Z,64.60
2022-08-25T00:34:34.022Z,64.50
2022-08-25T00:37:01.871Z,64.50
2022-08-25T00:39:29.131Z,64.40
2022-08-25T00:41:57.813Z,64.30
2022-08-25T00:44:27.141Z,64.30
2022-08-25T00:46:57.303Z,64.30
2022-08-25T00:49:32.387Z,64.20
2022-08-25T00:52:27.110Z,64.20
2022-08-25T00:55:08.065Z,64.30
2022-08-25T00:57:50.319Z,64.30
2022-08-25T01:00:27.392Z,64.20
2022-08-25T01:02:54.591Z,64.30
2022-08-25T01:05:21.643Z,64.30
2022-08-25T01:07:50.420Z,64.10
2022-08-25T01:10:21.374Z,64.10
2022-08-25T01:12:49.143Z,64.00
2022-08-25T01:15:17.163Z,64.00
2022-08-25T01:17:54.165Z,64.00
2022-08-25T01:20:23.968Z,64.00
2022-08-25T01:22:57.917Z,64.10
2022-08-25T01:25:28.371Z,64.30
2022-08-25T01:27:56.059Z,64.40
2022-08-25T01:30:24.472Z,64.40
2022-08-25T01:32:51.405Z,64.40
2022-08-25T01:35:19.052Z,64.50
2022-08-25T01:37:46.159Z,64.50
2022-08-25T01:40:13.674Z,64.50
2022-08-25T01:42:43.645Z,64.50
2022-08-25T01:45:10.600Z,64.60
2022-08-25T01:47:38.739Z,64.60
2022-08-25T01:50:07.439Z,64.70
2022-08-25T01:53:15.683Z,64.80
2022-08-25T01:55:51.899Z,64.90
2022-08-25T01:58:28.013Z,64.90
2022-08-25T02:00:57.306Z,65.00
2022-08-25T02:03:25.914Z,65.10
2022-08-25T02:05:54.803Z,65.00
2022-08-25T02:08:23.170Z,65.00
2022-08-25T02:10:51.097Z,65.10
2022-08-25T02:13:18.632Z,65.10
2022-08-25T02:15:50.428Z,65.90
2022-08-25T02:18:18.384Z,65.00
2022-08-25T02:20:45.671Z,65.00
2022-08-25T02:23:13.168Z,65.00
2022-08-25T02:25:41.355Z,64.90
2022-08-25T02:28:09.471Z,64.80
2022-08-25T02:30:38.693Z,64.70
2022-08-25T02:33:06.485Z,64.60
2022-08-25T02:35:33.483Z,64.50
2022-08-25T02:38:01.533Z,64.40
2022-08-25T02:40:28.640Z,64.50
2022-08-25T02:42:55.844Z,64.60
2022-08-25T02:45:23.262Z,64.60
2022-08-25T02:47:50.218Z,64.60
2022-08-25T02:50:17.164Z,64.60
2022-08-25T02:52:44.730Z,64.60
2022-08-25T02:55:14.307Z,64.60
2022-08-25T02:57:42.419Z,64.60
2022-08-25T03:00:14.707Z,64.60
2022-08-25T03:02:42.907Z,64.70
2022-08-25T03:05:11.577Z,64.70
2022-08-25T03:07:38.667Z,64.80
2022-08-25T03:10:14.544Z,64.80
2022-08-25T03:12:42.042Z,65.00
2022-08-25T03:15:12.827Z,65.00
2022-08-25T03:17:40.838Z,65.10
2022-08-25T03:20:10.890Z,65.10
2022-08-25T03:22:37.935Z,65.10
2022-08-25T03:25:24.411Z,65.10
2022-08-25T03:27:52.046Z,65.10
2022-08-25T03:30:20.216Z,65.20
2022-08-25T03:32:47.220Z,66.10
2022-08-25T03:35:14.698Z,65.40
2022-08-25T03:37:41.696Z,65.50
2022-08-25T03:40:13.726Z,65.60
2022-08-25T03:42:46.999Z,65.70
2022-08-25T03:45:16.517Z,65.90
2022-08-25T03:47:47.598Z,65.90
2022-08-25T03:50:16.145Z,66.00
2022-08-25T03:52:43.305Z,66.00
2022-08-25T03:55:12.754Z,66.00
2022-08-25T03:57:40.228Z,66.10
2022-08-25T04:00:09.763Z,66.10
2022-08-25T04:02:40.142Z,66.30
2022-08-25T04:05:08.556Z,66.30
2022-08-25T04:07:36.077Z,66.30
2022-08-25T04:10:04.354Z,66.50
2022-08-25T04:12:31.365Z,66.60
2022-08-25T04:14:59.140Z,66.60
2022-08-25T04:17:26.241Z,66.80
2022-08-25T04:19:53.475Z,66.90
2022-08-25T04:22:20.393Z,67.00
2022-08-25T04:24:47.368Z,67.00
2022-08-25T04:27:14.428Z,67.00
2022-08-25T04:29:41.691Z,67.00
2022-08-25T04:32:08.817Z,67.10
2022-08-25T04:34:35.817Z,67.10
2022-08-25T04:37:06.297Z,67.20
2022-08-25T04:39:33.749Z,67.20
2022-08-25T04:42:01.644Z,67.20
2022-08-25T04:44:30.144Z,67.30
2022-08-25T04:46:57.924Z,67.30
2022-08-25T04:49:24.964Z,67.30
2022-08-25T04:51:51.968Z,67.20
2022-08-25T04:54:22.788Z,67.20
2022-08-25T04:56:54.162Z,67.10
2022-08-25T04:59:23.575Z,67.10
2022-08-25T05:01:58.747Z,67.10
2022-08-25T05:04:27.664Z,66.90
2022-08-25T05:06:56.121Z,66.90
2022-08-25T05:09:23.594Z,66.70
2022-08-25T05:11:52.454Z,66.60
2022-08-25T05:14:25.741Z,66.40
2022-08-25T05:16:54.940Z,66.40
2022-08-25T05:19:23.924Z,65.50
2022-08-25T05:21:51.937Z,63.80
2022-08-25T05:24:19.427Z,61.80
2022-08-25T05:26:46.493Z,60.40
2022-08-25T05:29:14.447Z,60.00
2022-08-25T05:31:47.085Z,59.20
2022-08-25T05:34:18.765Z,58.10
2022-08-25T05:36:46.539Z,56.70
2022-08-25T05:39:13.566Z,55.60
2022-08-25T05:41:40.863Z,54.50
2022-08-25T05:44:08.510Z,53.50
2022-08-25T05:46:36.529Z,52.70
2022-08-25T05:49:03.643Z,51.90
2022-08-25T05:51:30.611Z,51.00
2022-08-25T05:53:57.645Z,50.30
2022-08-25T05:56:24.748Z,49.60
2022-08-25T05:58:51.735Z,48.90
2022-08-25T06:01:45.212Z,48.10
2022-08-25T06:04:13.466Z,47.40
2022-08-25T06:06:41.160Z,47.00
2022-08-25T06:09:09.646Z,46.30
2022-08-25T06:11:39.721Z,45.90
2022-08-25T06:14:08.260Z,45.30
2022-08-25T06:16:35.314Z,44.90
2022-08-25T06:19:02.380Z,44.20
2022-08-25T06:21:29.417Z,43.50
2022-08-25T06:23:56.657Z,43.00
2022-08-25T06:26:24.207Z,42.50
2022-08-25T06:28:51.866Z,41.70
2022-08-25T06:31:20.606Z,41.50
2022-08-25T06:33:48.068Z,41.10
2022-08-25T06:36:15.804Z,40.70
2022-08-25T06:38:42.830Z,40.40
2022-08-25T06:41:12.745Z,40.10
2022-08-25T06:43:47.362Z,39.90
2022-08-25T06:46:20.007Z,39.60
2022-08-25T06:48:47.622Z,38.90
2022-08-25T06:51:17.123Z,38.40
2022-08-25T06:53:46.345Z,37.70
2022-08-25T06:56:13.675Z,37.50
2022-08-25T06:58:40.831Z,37.20
2022-08-25T07:01:19.956Z,37.00
2022-08-25T07:03:48.134Z,36.20
2022-08-25T07:06:18.463Z,36.40
2022-08-25T07:08:46.939Z,35.70
2022-08-25T07:11:16.385Z,35.10
2022-08-25T07:13:44.096Z,35.10
2022-08-25T07:16:11.605Z,35.00
2022-08-25T07:18:39.022Z,34.80
2022-08-25T07:21:08.830Z,34.70
2022-08-25T07:23:36.891Z,34.80
2022-08-25T07:29:08.456Z,34.90
2022-08-25T07:31:35.847Z,35.30
2022-08-25T07:34:23.141Z,35.70
2022-08-25T07:36:50.159Z,35.60
2022-08-25T07:39:17.650Z,35.70
2022-08-25T07:41:51.951Z,35.60
2022-08-25T07:44:21.133Z,35.80
2022-08-25T07:46:48.701Z,35.20
2022-08-25T07:49:18.356Z,34.70
2022-08-25T07:52:03.590Z,34.60
2022-08-25T07:54:34.623Z,34.40
2022-08-25T07:57:03.860Z,33.90
2022-08-25T07:59:31.165Z,33.90
2022-08-25T08:02:18.618Z,33.90
2022-08-25T08:04:51.268Z,33.80
2022-08-25T08:07:41.135Z,33.80
2022-08-25T08:10:42.158Z,33.70
2022-08-25T08:12:59.938Z,33.70
2022-08-25T08:15:29.563Z,33.50
2022-08-25T08:18:00.749Z,33.30
2022-08-25T08:20:28.910Z,33.50
2022-08-25T08:22:56.338Z,33.10
2022-08-25T08:25:26.762Z,33.00
2022-08-25T08:27:55.223Z,32.80
2022-08-25T08:30:26.345Z,32.00
2022-08-25T08:33:12.040Z,32.00
2022-08-25T08:35:40.924Z,31.70
2022-08-25T08:38:14.943Z,32.00
2022-08-25T08:42:07.263Z,31.70
2022-08-25T08:44:55.401Z,32.10
2022-08-25T08:47:36.309Z,32.30
2022-08-25T08:50:28.084Z,32.90
2022-08-25T08:53:09.107Z,32.80
2022-08-25T08:55:42.728Z,32.50
2022-08-25T08:58:26.248Z,32.10
2022-08-25T09:00:58.270Z,32.20
2022-08-25T09:03:39.770Z,31.80
2022-08-25T09:06:41.976Z,31.80
2022-08-25T09:09:14.490Z,31.90
2022-08-25T09:11:54.962Z,31.90
2022-08-25T09:14:30.932Z,32.30
2022-08-25T09:17:22.127Z,32.40
2022-08-25T09:20:23.695Z,32.40
2022-08-25T09:23:22.954Z,31.60
2022-08-25T09:26:08.080Z,30.80
2022-08-25T09:28:55.376Z,31.10
2022-08-25T09:31:38.848Z,31.20
2022-08-25T09:34:11.789Z,31.40
2022-08-25T09:36:39.784Z,31.00
2022-08-25T09:39:07.565Z,30.60
2022-08-25T09:41:51.407Z,30.00
2022-08-25T09:44:24.372Z,29.80
2022-08-25T09:47:17.944Z,30.00
2022-08-25T09:50:04.602Z,29.50
2022-08-25T09:52:38.340Z,28.50
2022-08-25T09:55:08.388Z,27.90
2022-08-25T09:57:52.990Z,26.90
2022-08-25T10:00:25.918Z,26.50
2022-08-25T10:03:24.633Z,27.00
2022-08-25T10:06:14.816Z,26.90
2022-08-25T10:08:57.595Z,27.20
2022-08-25T10:11:44.162Z,27.80
2022-08-25T10:14:44.374Z,27.80
2022-08-25T10:17:38.568Z,27.60
2022-08-25T10:20:12.004Z,27.50
2022-08-25T10:22:41.228Z,26.50
2022-08-25T10:25:11.658Z,26.70
2022-08-25T10:27:44.348Z,26.40
2022-08-25T10:30:40.597Z,26.00
2022-08-25T10:33:09.362Z,25.70
2022-08-25T10:35:51.809Z,25.50
2022-08-25T10:38:28.752Z,25.40
2022-08-25T10:41:18.422Z,25.20
2022-08-25T10:43:54.371Z,25.00
2022-08-25T10:46:25.417Z,25.70
2022-08-25T10:49:07.828Z,26.10
2022-08-25T10:51:46.111Z,26.10
2022-08-25T10:54:36.247Z,26.00
2022-08-25T10:57:32.393Z,26.10
2022-08-25T11:00:09.230Z,26.30
2022-08-25T11:02:54.321Z,26.60
2022-08-25T11:05:47.083Z,26.90
2022-08-25T11:08:46.325Z,26.60
2022-08-25T11:11:37.212Z,26.20
2022-08-25T11:14:12.652Z,26.40
2022-08-25T11:16:53.849Z,26.40
2022-08-25T11:19:30.959Z,26.80
2022-08-25T11:22:34.979Z,26.80
2022-08-25T11:25:29.367Z,25.90
2022-08-25T11:28:36.032Z,25.80
2022-08-25T11:31:04.293Z,26.10
2022-08-25T11:33:33.240Z,25.90
2022-08-25T11:36:35.823Z,25.40
2022-08-25T11:39:18.858Z,24.70
2022-08-25T11:42:23.758Z,24.40
2022-08-25T11:45:04.962Z,23.10
2022-08-25T11:47:43.916Z,23.30
2022-08-25T11:50:56.850Z,23.80
2022-08-25T11:53:30.701Z,25.10
2022-08-25T11:56:22.236Z,25.10
2022-08-25T11:58:51.610Z,24.90
2022-08-25T12:01:40.473Z,24.30
2022-08-25T12:04:30.989Z,24.10
2022-08-25T12:07:07.296Z,23.90
2022-08-25T12:09:55.325Z,24.00
2022-08-25T12:12:46.639Z,23.80
2022-08-25T12:15:27.466Z,23.60
2022-08-25T12:18:13.596Z,24.00
2022-08-25T12:20:54.338Z,23.90
2022-08-25T12:23:34.050Z,23.90
2022-08-25T12:26:28.921Z,23.70
2022-08-25T12:29:07.872Z,23.60
2022-08-25T12:31:53.169Z,23.90
2022-08-25T12:34:38.320Z,23.60
2022-08-25T12:37:15.880Z,24.00
2022-08-25T12:40:00.048Z,25.00
2022-08-25T12:42:32.508Z,25.30
2022-08-25T12:45:14.124Z,25.20
2022-08-25T12:47:47.520Z,25.40
2022-08-25T12:50:47.683Z,25.90
2022-08-25T12:53:17.947Z,26.40
2022-08-25T12:55:50.099Z,26.00
2022-08-25T12:58:17.105Z,25.90
2022-08-25T13:01:07.564Z,25.50
2022-08-25T13:03:59.141Z,25.30
2022-08-25T13:06:54.739Z,25.30
2022-08-25T13:09:43.128Z,25.30
2022-08-25T13:12:31.380Z,25.70
2022-08-25T13:14:59.596Z,25.80
2022-08-25T13:17:29.495Z,25.90
2022-08-25T13:20:31.880Z,25.80
2022-08-25T13:23:03.914Z,26.00
2022-08-25T13:25:33.240Z,26.30
2022-08-25T13:28:05.266Z,26.30
2022-08-25T13:30:35.477Z,26.70
2022-08-25T13:33:26.610Z,26.90
2022-08-25T13:36:15.570Z,27.30
2022-08-25T13:38:45.907Z,27.50
2022-08-25T13:41:29.432Z,28.30
2022-08-25T13:44:00.837Z,28.80
2022-08-25T13:46:29.080Z,29.70
2022-08-25T13:49:06.059Z,30.30
2022-08-25T13:51:33.639Z,30.50
2022-08-25T13:54:04.642Z,30.70
2022-08-25T13:56:41.434Z,31.60
2022-08-25T13:59:25.173Z,32.40
2022-08-25T14:01:54.369Z,32.80
2022-08-25T14:04:24.646Z,32.70
2022-08-25T14:07:22.433Z,32.50
2022-08-25T14:10:06.696Z,32.70
2022-08-25T14:12:46.873Z,33.10
2022-08-25T14:15:29.573Z,33.30
2022-08-25T14:18:18.702Z,33.40
2022-08-25T14:20:50.618Z,34.50
2022-08-25T14:23:30.444Z,35.00
2022-08-25T14:25:58.616Z,35.80
2022-08-25T14:28:29.138Z,36.00
2022-08-25T14:31:00.004Z,36.10
2022-08-25T14:33:31.555Z,36.20
2022-08-25T14:36:02.581Z,37.40
2022-08-25T14:38:29.557Z,36.60
2022-08-25T14:40:59.043Z,36.70
2022-08-25T14:43:31.435Z,36.60
2022-08-25T14:45:59.946Z,36.50
2022-08-25T14:48:32.568Z,36.00
2022-08-25T14:51:00.370Z,35.80
2022-08-25T14:53:28.710Z,35.70
2022-08-25T14:55:58.979Z,35.20
2022-08-25T14:58:27.270Z,34.60
2022-08-25T15:00:55.475Z,33.80
2022-08-25T15:03:30.836Z,33.70
2022-08-25T15:06:01.410Z,33.70
2022-08-25T15:08:47.111Z,34.00
2022-08-25T15:11:14.957Z,34.20
2022-08-25T15:13:49.242Z,34.60
2022-08-25T15:16:35.477Z,34.40
2022-08-25T15:19:09.747Z,34.90
2022-08-25T15:21:37.523Z,35.10
2022-08-25T15:24:06.429Z,35.50
2022-08-25T15:26:59.528Z,36.00
2022-08-25T15:29:30.162Z,36.30
2022-08-25T15:31:59.158Z,36.60
2022-08-25T15:34:26.350Z,37.60
2022-08-25T15:36:53.394Z,37.20
2022-08-25T15:39:20.806Z,37.40
2022-08-25T15:41:57.551Z,37.70
2022-08-25T15:44:29.408Z,38.20
2022-08-25T15:46:58.275Z,38.60
2022-08-25T15:49:26.385Z,38.80
2022-08-25T15:51:57.185Z,38.90
2022-08-25T15:54:26.684Z,39.10
2022-08-25T15:56:55.150Z,38.80
2022-08-25T15:59:23.947Z,38.90
2022-08-25T16:01:55.418Z,39.10
2022-08-25T16:04:27.903Z,39.00
2022-08-25T16:06:55.650Z,39.60
2022-08-25T16:09:23.632Z,39.80
2022-08-25T16:11:56.735Z,40.40
2022-08-25T16:14:27.717Z,41.00
2022-08-25T16:16:58.266Z,41.50
2022-08-25T16:19:28.547Z,41.60
2022-08-25T16:21:56.045Z,41.80
2022-08-25T16:24:23.303Z,42.10
2022-08-25T16:26:51.710Z,41.20
2022-08-25T16:29:19.130Z,41.60
2022-08-25T16:31:53.071Z,42.30
2022-08-25T16:34:20.713Z,42.90
2022-08-25T16:36:47.723Z,43.50
2022-08-25T16:39:19.727Z,43.60
2022-08-25T16:41:47.816Z,43.50
2022-08-25T16:44:15.235Z,44.10
2022-08-25T16:46:44.220Z,44.50
2022-08-25T16:49:12.502Z,44.50
2022-08-25T16:51:40.295Z,45.30
2022-08-25T16:54:28.722Z,46.10
2022-08-25T16:56:57.546Z,46.30
2022-08-25T16:59:25.327Z,46.40
2022-08-25T17:01:53.151Z,46.70
2022-08-25T17:04:20.916Z,47.30
2022-08-25T17:06:56.463Z,47.60
2022-08-25T17:09:24.022Z,47.90
2022-08-25T17:11:54.411Z,48.10
2022-08-25T17:14:23.049Z,48.50
2022-08-25T17:16:51.332Z,48.70
2022-08-25T17:19:18.793Z,48.60
2022-08-25T17:21:49.982Z,48.80
2022-08-25T17:24:17.913Z,49.10
2022-08-25T17:26:47.252Z,49.30
2022-08-25T17:29:14.209Z,49.20
2022-08-25T17:31:43.997Z,49.50
2022-08-25T17:34:16.393Z,49.80
2022-08-25T17:36:44.435Z,50.10
2022-08-25T17:39:13.991Z,50.50
2022-08-25T17:41:43.063Z,50.80
2022-08-25T17:44:10.020Z,51.00
2022-08-25T17:46:40.785Z,51.40
2022-08-25T17:49:14.983Z,51.60
2022-08-25T17:51:42.699Z,51.80
2022-08-25T17:54:11.041Z,51.80
2022-08-25T17:56:38.170Z,52.10
2022-08-25T17:59:06.415Z,52.30
2022-08-25T18:01:40.873Z,52.50
2022-08-25T18:04:17.551Z,52.70
2022-08-25T18:06:45.916Z,53.00
2022-08-25T18:09:13.768Z,53.20
2022-08-25T18:11:40.827Z,53.30
2022-08-25T18:14:07.913Z,53.50
2022-08-25T18:16:38.404Z,53.60
2022-08-25T18:19:09.432Z,53.80
2022-08-25T18:21:37.218Z,53.90
2022-08-25T18:24:05.091Z,54.20
2022-08-25T18:26:33.108Z,54.30
2022-08-25T18:29:00.252Z,54.40
2022-08-25T18:31:27.305Z,54.60
2022-08-25T18:33:54.759Z,54.70
2022-08-25T18:36:21.755Z,55.00
2022-08-25T18:39:08.570Z,55.10
2022-08-25T18:41:41.229Z,55.20
2022-08-25T18:44:08.937Z,55.30
2022-08-25T18:46:39.426Z,55.00
2022-08-25T18:49:06.462Z,55.40
2022-08-25T18:51:33.478Z,55.60
2022-08-25T18:54:01.486Z,55.90
2022-08-25T18:56:29.046Z,56.00
2022-08-25T18:58:57.117Z,56.10
2022-08-25T19:01:24.562Z,56.10
2022-08-25T19:03:51.869Z,56.20
2022-08-25T19:06:20.758Z,56.30
2022-08-25T19:08:48.596Z,56.40
2022-08-25T19:11:16.562Z,56.40
2022-08-25T19:13:44.877Z,56.50
2022-08-25T19:16:34.592Z,56.60
2022-08-25T19:19:03.627Z,56.70
2022-08-25T19:21:31.253Z,56.70
2022-08-25T19:23:58.782Z,56.90
2022-08-25T19:26:26.387Z,56.90
2022-08-25T19:28:53.947Z,57.00
2022-08-25T19:31:23.943Z,57.10
2022-08-25T19:33:54.257Z,57.10
2022-08-25T19:36:24.923Z,57.30
2022-08-25T19:38:59.388Z,57.40
2022-08-25T19:41:27.970Z,57.00
2022-08-25T19:43:57.451Z,57.90
2022-08-25T19:46:32.185Z,57.40
2022-08-25T19:49:16.567Z,57.40
2022-08-25T19:51:47.819Z,57.50
2022-08-25T19:54:22.659Z,57.40
2022-08-25T19:56:55.072Z,57.50
2022-08-25T19:59:40.783Z,57.50
2022-08-25T20:02:21.507Z,57.70
2022-08-25T20:04:50.824Z,57.80
2022-08-25T20:07:21.206Z,57.70
2022-08-25T20:09:49.334Z,57.90
2022-08-25T20:12:17.276Z,57.80
2022-08-25T20:14:45.296Z,57.90
2022-08-25T20:17:23.092Z,57.90
2022-08-25T20:20:00.433Z,58.00
2022-08-25T20:22:30.758Z,58.10
2022-08-25T20:25:01.259Z,58.20
2022-08-25T20:27:36.712Z,58.20
2022-08-25T20:30:08.164Z,58.30
2022-08-25T20:32:35.725Z,58.40
2022-08-25T20:35:05.559Z,58.40
2022-08-25T20:37:36.439Z,58.50
2022-08-25T20:40:04.867Z,58.50
2022-08-25T20:42:31.859Z,58.50
2022-08-25T20:44:59.134Z,58.50
2022-08-25T20:47:26.278Z,58.50
2022-08-25T20:49:53.336Z,58.50
2022-08-25T20:52:20.891Z,58.50
2022-08-25T20:54:50.349Z,58.60
2022-08-25T20:57:25.782Z,58.60
2022-08-25T20:59:54.767Z,58.70
2022-08-25T21:02:23.010Z,58.70
2022-08-25T21:04:50.831Z,58.80
2022-08-25T21:07:18.714Z,58.90
2022-08-25T21:09:46.543Z,58.90
2022-08-25T21:12:14.632Z,59.00
2022-08-25T21:14:43.788Z,59.20
2022-08-25T21:17:15.844Z,59.20
2022-08-25T21:22:18.808Z,59.40
2022-08-25T21:24:46.034Z,59.50
2022-08-25T21:27:13.474Z,59.60
2022-08-25T21:29:44.727Z,59.70
2022-08-25T21:32:22.186Z,59.70
2022-08-25T21:34:56.224Z,59.80
2022-08-25T21:37:24.195Z,60.00
2022-08-25T21:39:52.292Z,60.10
2022-08-25T21:42:23.893Z,60.10
2022-08-25T21:44:52.870Z,60.30
2022-08-25T21:47:21.605Z,60.40
2022-08-25T21:49:50.760Z,60.50
2022-08-25T21:52:18.692Z,60.60
2022-08-25T21:54:46.236Z,60.80
2022-08-25T21:57:13.224Z,60.90
2022-08-25T21:59:41.071Z,61.10
2022-08-25T22:02:10.251Z,61.10
2022-08-25T22:04:39.430Z,61.10
2022-08-25T22:07:07.656Z,61.30
2022-08-25T22:09:35.678Z,61.20
2022-08-25T22:12:03.509Z,61.40
2022-08-25T22:14:30.566Z,61.40
2022-08-25T22:16:57.858Z,61.60
2022-08-25T22:19:24.941Z,61.70
2022-08-25T22:21:52.995Z,61.90
2022-08-25T22:24:20.771Z,61.90
2022-08-25T22:26:49.130Z,61.90
2022-08-25T22:29:25.297Z,61.90
2022-08-25T22:31:58.592Z,62.00
2022-08-25T22:34:32.669Z,62.00
2022-08-25T22:37:01.954Z,62.10
2022-08-25T22:39:32.255Z,62.00
2022-08-25T22:42:01.833Z,62.10
2022-08-25T22:44:28.843Z,62.10
2022-08-25T22:46:56.008Z,62.20
2022-08-25T22:49:23.691Z,62.30
2022-08-25T22:51:50.828Z,62.50
2022-08-25T22:54:18.018Z,62.50
2022-08-25T22:56:44.986Z,62.60
2022-08-25T22:59:13.959Z,62.60
2022-08-25T23:01:44.136Z,62.60
2022-08-25T23:04:11.231Z,62.60
2022-08-25T23:06:38.401Z,62.50
2022-08-25T23:09:07.521Z,62.40
2022-08-25T23:11:35.871Z,62.70
2022-08-25T23:14:08.253Z,62.30
2022-08-25T23:16:35.411Z,62.30
2022-08-25T23:19:02.433Z,62.40
2022-08-25T23:21:48.513Z,62.40
2022-08-25T23:24:30.056Z,62.60
2022-08-25T23:26:59.553Z,62.70
2022-08-25T23:29:28.245Z,62.90
2022-08-25T23:31:56.188Z,62.90
2022-08-25T23:34:23.878Z,63.00
2022-08-25T23:36:51.143Z,63.10
2022-08-25T23:39:18.702Z,63.10
2022-08-25T23:41:49.696Z,63.20
2022-08-25T23:44:17.737Z,63.20
2022-08-25T23:46:47.199Z,63.30
2022-08-25T23:49:18.225Z,63.40
2022-08-25T23:51:47.509Z,63.40
2022-08-25T23:54:14.776Z,63.40
2022-08-25T23:56:51.484Z,63.40
2022-08-25T23:59:20.568Z,63.40
